Terminal Aerodrome Forecast
Issued by NWS

Current Version | Previous Version | Text Only | Print | Product List | Glossary Off
Versions: 1 2 3 4 5 6 7 8 9 10 11 12 13 14 15 16

000
FTUS41 KPBZ 181735
TAFMGW
TAF
KMGW 181735Z 1818/1918 20002KT P6SM SKC
     FM182000 24005KT P6SM BKN050
     FM190200 05006KT P6SM VCSH BKN050
     FM190300 12008KT P6SM -SHRA OVC025
     FM191100 25012G20KT 3SM -SHSN OVC020=

USA.gov is the U.S. government's official web portal to all federal, state and local government web resources and services.